createdAt,value
2018-07-04T00:00:03.627Z,6.97
2018-07-04T00:02:43.215Z,5.10
2018-07-04T00:05:22.826Z,5.73
2018-07-04T00:08:02.473Z,6.10
2018-07-04T00:10:42.055Z,5.93
2018-07-04T00:13:21.713Z,5.90
2018-07-04T00:16:01.348Z,7.10
2018-07-04T00:18:40.863Z,5.80
2018-07-04T00:21:20.463Z,5.93
2018-07-04T00:24:00.015Z,6.20
2018-07-04T00:26:39.616Z,4.80
2018-07-04T00:29:19.347Z,5.50
2018-07-04T00:31:59.020Z,5.10
2018-07-04T00:34:38.659Z,5.43
2018-07-04T00:37:18.231Z,6.60
2018-07-04T00:39:57.907Z,5.23
2018-07-04T00:42:37.538Z,5.70
2018-07-04T00:45:17.194Z,5.33
2018-07-04T00:47:56.887Z,5.30
2018-07-04T00:50:36.463Z,4.73
2018-07-04T00:53:16.064Z,5.20
2018-07-04T00:55:55.823Z,4.90
2018-07-04T00:58:35.575Z,4.90
2018-07-04T01:01:15.250Z,5.97
2018-07-04T01:03:54.828Z,6.33
2018-07-04T01:06:34.465Z,5.47
2018-07-04T01:09:14.082Z,5.70
2018-07-04T01:11:53.843Z,5.30
2018-07-04T01:14:33.479Z,5.20
2018-07-04T01:17:13.160Z,5.03
2018-07-04T01:19:52.660Z,5.77
2018-07-04T01:22:32.418Z,5.80
2018-07-04T01:25:12.037Z,6.20
2018-07-04T01:27:51.695Z,6.43
2018-07-04T01:30:31.356Z,6.90
2018-07-04T01:33:10.908Z,5.83
2018-07-04T01:35:50.620Z,6.30
2018-07-04T01:38:30.231Z,6.20
2018-07-04T01:41:09.795Z,6.03
2018-07-04T01:43:49.792Z,7.97
2018-07-04T01:46:29.464Z,6.60
2018-07-04T01:49:09.103Z,7.83
2018-07-04T01:51:48.678Z,8.73
2018-07-04T01:54:28.220Z,8.20
2018-07-04T01:57:07.811Z,8.00
2018-07-04T01:59:47.447Z,7.90
2018-07-04T02:02:27.106Z,7.80
2018-07-04T02:05:06.743Z,8.30
2018-07-04T02:07:46.291Z,9.07
2018-07-04T02:10:26.046Z,7.93
2018-07-04T02:13:05.483Z,7.80
2018-07-04T02:15:45.148Z,8.10
2018-07-04T02:18:25.160Z,7.97
2018-07-04T02:21:04.623Z,7.80
2018-07-04T02:23:44.275Z,7.17
2018-07-04T02:26:23.918Z,7.57
2018-07-04T02:29:03.522Z,7.90
2018-07-04T02:31:43.183Z,7.90
2018-07-04T02:34:26.722Z,8.70
2018-07-04T02:37:07.924Z,9.57
2018-07-04T02:39:47.739Z,10.33
2018-07-04T02:42:27.324Z,10.80
2018-07-04T02:45:07.081Z,8.90
2018-07-04T02:47:46.602Z,9.40
2018-07-04T02:50:26.203Z,8.23
2018-07-04T02:53:05.847Z,8.43
2018-07-04T02:55:45.503Z,7.90
2018-07-04T02:58:25.156Z,7.23
2018-07-04T03:01:04.744Z,5.57
2018-07-04T03:03:44.548Z,5.43
2018-07-04T03:06:24.004Z,6.60
2018-07-04T03:09:04.436Z,5.10
2018-07-04T03:11:44.010Z,4.57
2018-07-04T03:14:23.680Z,5.97
2018-07-04T03:17:03.257Z,5.70
2018-07-04T03:19:42.790Z,5.23
2018-07-04T03:22:22.280Z,4.50
2018-07-04T03:25:01.813Z,4.60
2018-07-04T03:27:41.267Z,5.60
2018-07-04T03:30:21.146Z,5.70
2018-07-04T03:33:00.607Z,4.93
2018-07-04T03:35:40.163Z,5.90
2018-07-04T03:38:21.620Z,4.97
2018-07-04T03:41:02.742Z,4.70
2018-07-04T03:43:42.488Z,5.30
2018-07-04T03:46:22.111Z,5.17
2018-07-04T03:49:01.631Z,6.20
2018-07-04T03:51:41.307Z,6.00
2018-07-04T03:54:20.984Z,6.30
2018-07-04T03:57:00.638Z,4.80
2018-07-04T03:59:40.276Z,5.73
2018-07-04T04:02:19.886Z,5.40
2018-07-04T04:04:59.413Z,5.77
2018-07-04T04:07:39.047Z,5.87
2018-07-04T04:10:18.767Z,5.83
2018-07-04T04:12:58.446Z,5.43
2018-07-04T04:15:38.394Z,6.40
2018-07-04T04:18:18.023Z,6.63
2018-07-04T04:20:57.599Z,6.20
2018-07-04T04:23:37.192Z,5.90
2018-07-04T04:26:16.794Z,5.87
2018-07-04T04:28:56.471Z,6.03
2018-07-04T04:31:36.080Z,5.70
2018-07-04T04:34:15.696Z,5.70
2018-07-04T04:36:55.225Z,5.30
2018-07-04T04:39:34.932Z,5.43
2018-07-04T04:42:14.413Z,6.23
2018-07-04T04:44:54.052Z,5.43
2018-07-04T04:47:33.601Z,5.93
2018-07-04T04:50:13.261Z,6.10
2018-07-04T04:52:52.801Z,6.23
2018-07-04T04:55:32.386Z,6.03
2018-07-04T04:58:12.043Z,7.43
2018-07-04T05:00:51.695Z,6.20
2018-07-04T05:03:31.294Z,6.70
2018-07-04T05:06:10.813Z,7.40
2018-07-04T05:08:50.454Z,7.40
2018-07-04T05:11:30.115Z,8.20
2018-07-04T05:14:10.352Z,7.50
2018-07-04T05:16:49.833Z,19.27
2018-07-04T05:19:29.472Z,14.80
2018-07-04T05:22:09.129Z,8.00
2018-07-04T05:24:48.607Z,7.80
2018-07-04T05:27:28.163Z,7.67
2018-07-04T05:30:07.736Z,7.90
2018-07-04T05:32:47.307Z,9.23
2018-07-04T05:35:26.853Z,10.27
2018-07-04T05:38:06.416Z,9.97
2018-07-04T05:40:46.044Z,8.57
2018-07-04T05:43:25.722Z,9.07
2018-07-04T05:46:05.361Z,9.40
2018-07-04T05:48:44.959Z,11.53
2018-07-04T05:51:24.575Z,9.30
2018-07-04T05:54:04.191Z,9.03
2018-07-04T05:56:43.819Z,8.70
2018-07-04T05:59:23.533Z,9.57
2018-07-04T06:02:02.985Z,11.50
2018-07-04T06:04:42.507Z,11.47
2018-07-04T06:07:22.070Z,11.00
2018-07-04T06:10:01.705Z,10.10
2018-07-04T06:12:41.375Z,10.87
2018-07-04T06:15:21.031Z,10.30
2018-07-04T06:18:00.623Z,9.67
2018-07-04T06:20:40.550Z,10.73
2018-07-04T06:23:20.163Z,11.00
2018-07-04T06:25:59.680Z,12.07
2018-07-04T06:28:39.318Z,12.47
2018-07-04T06:31:19.017Z,10.50
2018-07-04T06:33:58.578Z,9.43
2018-07-04T06:36:38.217Z,9.83
2018-07-04T06:39:05.994Z,9.30
2018-07-04T06:41:33.188Z,9.97
2018-07-04T06:44:00.436Z,9.80
2018-07-04T06:46:27.674Z,9.20
2018-07-04T06:48:54.957Z,10.30
2018-07-04T06:51:22.187Z,9.50
2018-07-04T06:53:49.434Z,9.27
2018-07-04T06:56:16.664Z,9.27
2018-07-04T06:58:43.897Z,10.20
2018-07-04T07:01:11.134Z,9.10
2018-07-04T07:03:50.798Z,9.67
2018-07-04T07:06:30.401Z,9.53
2018-07-04T07:09:10.065Z,9.70
2018-07-04T07:11:49.687Z,8.60
2018-07-04T07:14:29.387Z,8.73
2018-07-04T07:17:08.971Z,8.80
2018-07-04T07:19:48.623Z,8.47
2018-07-04T07:22:28.291Z,8.47
2018-07-04T07:25:07.911Z,9.00
2018-07-04T07:27:47.536Z,8.03
2018-07-04T07:30:27.140Z,8.00
2018-07-04T07:33:06.769Z,7.47
2018-07-04T07:35:46.492Z,6.97
2018-07-04T07:38:26.072Z,6.73
2018-07-04T07:41:05.725Z,7.63
2018-07-04T07:47:27.345Z,7.37
2018-07-04T07:50:06.982Z,6.60
2018-07-04T07:52:46.630Z,7.60
2018-07-04T07:55:26.275Z,7.47
2018-07-04T07:58:05.895Z,8.43
2018-07-04T08:00:45.556Z,7.10
2018-07-04T08:03:25.176Z,7.80
2018-07-04T08:06:04.808Z,6.63
2018-07-04T08:08:44.426Z,6.63
2018-07-04T08:11:23.943Z,6.50
2018-07-04T08:14:03.567Z,6.93
2018-07-04T08:16:43.263Z,7.50
2018-07-04T08:19:22.969Z,7.47
2018-07-04T08:22:02.510Z,6.97
2018-07-04T08:24:42.127Z,7.53
2018-07-04T08:27:21.803Z,7.37
2018-07-04T08:30:01.415Z,7.67
2018-07-04T08:32:41.045Z,5.90
2018-07-04T08:35:20.564Z,6.57
2018-07-04T08:38:00.190Z,6.23
2018-07-04T08:40:39.875Z,6.40
2018-07-04T08:43:19.498Z,6.23
2018-07-04T08:45:59.125Z,6.27
2018-07-04T08:48:38.777Z,7.03
2018-07-04T08:51:18.265Z,7.73
2018-07-04T08:53:57.967Z,6.17
2018-07-04T08:56:37.540Z,6.60
2018-07-04T08:59:17.188Z,6.07
2018-07-04T09:01:56.680Z,6.20
2018-07-04T09:04:36.263Z,7.97
2018-07-04T09:07:16.044Z,6.50
2018-07-04T09:09:55.535Z,5.60
2018-07-04T09:12:35.187Z,6.17
2018-07-04T09:15:14.823Z,6.00
2018-07-04T09:17:54.407Z,5.63
2018-07-04T09:20:35.076Z,6.07
2018-07-04T09:23:14.707Z,5.90
2018-07-04T09:25:54.223Z,6.53
2018-07-04T09:28:33.865Z,5.50
2018-07-04T09:31:13.710Z,6.67
2018-07-04T09:33:53.322Z,6.53
2018-07-04T09:36:33.051Z,5.97
2018-07-04T09:39:12.659Z,6.00
2018-07-04T09:41:52.499Z,5.53
2018-07-04T09:44:31.876Z,5.83
2018-07-04T09:47:11.446Z,4.87
2018-07-04T09:49:51.120Z,5.23
2018-07-04T09:52:30.600Z,4.87
2018-07-04T09:55:10.558Z,4.30
2018-07-04T09:57:50.276Z,4.87
2018-07-04T10:00:30.709Z,4.87
2018-07-04T10:03:11.408Z,4.00
2018-07-04T10:05:51.129Z,4.43
2018-07-04T10:08:30.702Z,4.53
2018-07-04T10:11:10.766Z,3.97
2018-07-04T10:13:50.279Z,3.70
2018-07-04T10:16:29.952Z,3.93
2018-07-04T10:19:09.543Z,4.10
2018-07-04T10:23:18.236Z,3.77
2018-07-04T10:25:57.922Z,3.97
2018-07-04T10:28:37.904Z,3.83
2018-07-04T10:31:17.512Z,3.33
2018-07-04T10:33:56.978Z,3.23
2018-07-04T10:36:36.513Z,2.67
2018-07-04T10:39:16.042Z,2.90
2018-07-04T10:41:55.599Z,2.97
2018-07-04T10:44:35.725Z,3.80
2018-07-04T10:47:15.332Z,4.03
2018-07-04T10:49:54.841Z,3.10
2018-07-04T10:52:34.340Z,3.10
2018-07-04T10:55:13.946Z,3.80
2018-07-04T10:57:53.572Z,3.13
2018-07-04T11:00:33.023Z,3.63
2018-07-04T11:03:12.595Z,2.27
2018-07-04T11:05:52.534Z,2.30
2018-07-04T11:08:32.289Z,2.10
2018-07-04T11:11:11.906Z,2.27
2018-07-04T11:13:51.731Z,1.63
2018-07-04T11:16:31.272Z,2.03
2018-07-04T11:19:10.893Z,2.27
2018-07-04T11:21:50.630Z,2.33
2018-07-04T11:24:30.265Z,2.13
2018-07-04T11:27:10.199Z,2.13
2018-07-04T11:29:49.899Z,2.17
2018-07-04T11:32:29.785Z,2.30
2018-07-04T11:35:09.771Z,2.10
2018-07-04T11:37:49.188Z,2.10
2018-07-04T11:40:28.831Z,2.37
2018-07-04T11:43:08.372Z,2.20
2018-07-04T11:45:48.019Z,1.80
2018-07-04T11:48:15.260Z,2.00
2018-07-04T11:50:42.475Z,1.73
2018-07-04T11:53:09.748Z,2.30
2018-07-04T11:55:36.943Z,2.43
2018-07-04T11:58:04.190Z,1.93
2018-07-04T12:00:31.422Z,1.93
2018-07-04T12:02:58.666Z,2.03
2018-07-04T12:05:38.281Z,1.77
2018-07-04T12:08:05.539Z,1.60
2018-07-04T12:10:32.765Z,1.73
2018-07-04T12:12:59.976Z,1.90
2018-07-04T12:15:27.220Z,1.53
2018-07-04T12:17:54.428Z,2.00
2018-07-04T12:20:21.706Z,1.97
2018-07-04T12:22:48.906Z,1.93
2018-07-04T12:25:16.139Z,1.80
2018-07-04T12:27:43.382Z,1.70
2018-07-04T12:30:10.590Z,1.57
2018-07-04T12:32:37.814Z,1.83
2018-07-04T12:35:05.037Z,1.60
2018-07-04T12:37:32.352Z,1.90
2018-07-04T12:39:59.535Z,1.90
2018-07-04T12:42:26.893Z,1.90
2018-07-04T12:44:54.144Z,1.30
2018-07-04T12:47:21.411Z,1.10
2018-07-04T12:49:48.632Z,1.50
2018-07-04T12:52:15.863Z,1.77
2018-07-04T12:54:48.417Z,1.73
2018-07-04T12:57:27.835Z,1.50
2018-07-04T13:00:07.453Z,1.70
2018-07-04T13:02:46.948Z,1.57
2018-07-04T13:05:26.621Z,1.50
2018-07-04T13:08:06.118Z,1.77
2018-07-04T13:10:45.787Z,1.47
2018-07-04T13:13:25.291Z,2.43
2018-07-04T13:16:05.060Z,2.77
2018-07-04T13:18:44.668Z,1.70
2018-07-04T13:21:24.255Z,1.70
2018-07-04T13:24:03.887Z,2.03
2018-07-04T13:26:43.424Z,2.00
2018-07-04T13:29:23.046Z,2.03
2018-07-04T13:32:02.726Z,1.70
2018-07-04T13:34:42.338Z,2.60
2018-07-04T13:37:21.994Z,1.60
2018-07-04T13:40:01.658Z,1.80
2018-07-04T13:42:41.145Z,2.97
2018-07-04T13:45:20.699Z,1.70
2018-07-04T13:48:00.335Z,2.20
2018-07-04T13:50:39.974Z,2.03
2018-07-04T13:53:19.656Z,1.70
2018-07-04T13:55:59.094Z,1.63
2018-07-04T13:58:38.687Z,1.77
2018-07-04T14:01:18.319Z,1.73
2018-07-04T14:03:58.000Z,1.90
2018-07-04T14:06:37.556Z,1.40
2018-07-04T14:09:17.691Z,3.37
2018-07-04T14:11:57.420Z,2.20
2018-07-04T14:14:36.935Z,1.50
2018-07-04T14:17:16.707Z,1.67
2018-07-04T14:19:56.388Z,1.43
2018-07-04T14:22:35.976Z,1.63
2018-07-04T14:25:15.546Z,1.70
2018-07-04T14:27:55.164Z,1.60
2018-07-04T14:30:34.807Z,1.87
2018-07-04T14:33:14.380Z,1.53
2018-07-04T14:35:53.995Z,1.63
2018-07-04T14:38:33.603Z,1.43
2018-07-04T14:41:13.155Z,2.00
2018-07-04T14:43:52.813Z,1.90
2018-07-04T14:46:32.369Z,1.97
2018-07-04T14:49:11.991Z,1.83
2018-07-04T14:51:51.694Z,1.90
2018-07-04T14:54:31.287Z,1.53
2018-07-04T14:57:11.232Z,1.60
2018-07-04T14:59:50.731Z,1.60
2018-07-04T15:02:30.687Z,1.80
2018-07-04T15:05:10.207Z,1.80
2018-07-04T15:07:49.916Z,1.60
2018-07-04T15:10:29.395Z,1.87
2018-07-04T15:13:09.103Z,1.67
2018-07-04T15:15:48.761Z,1.90
2018-07-04T15:18:31.066Z,1.40
2018-07-04T15:21:10.595Z,1.40
2018-07-04T15:23:50.287Z,1.70
2018-07-04T15:26:29.936Z,1.90
2018-07-04T15:29:09.573Z,4.57
2018-07-04T15:31:49.095Z,2.10
2018-07-04T15:34:28.498Z,1.27
2018-07-04T15:37:08.348Z,1.63
2018-07-04T15:39:47.925Z,1.63
2018-07-04T15:42:27.627Z,2.27
2018-07-04T15:45:07.285Z,1.77
2018-07-04T15:47:47.127Z,1.80
2018-07-04T15:50:26.647Z,1.60
2018-07-04T15:53:06.316Z,1.97
2018-07-04T15:55:45.862Z,1.93
2018-07-04T15:58:25.365Z,3.47
2018-07-04T16:01:05.061Z,2.10
2018-07-04T16:03:44.651Z,2.10
2018-07-04T16:06:24.321Z,1.97
2018-07-04T16:09:05.258Z,2.00
2018-07-04T16:11:44.840Z,1.80
2018-07-04T16:14:24.323Z,1.90
2018-07-04T16:17:04.024Z,2.17
2018-07-04T16:19:43.574Z,2.57
2018-07-04T16:22:23.155Z,2.47
2018-07-04T16:25:02.723Z,3.43
2018-07-04T16:27:42.379Z,2.60
2018-07-04T16:30:22.092Z,3.10
2018-07-04T16:33:02.112Z,2.60
2018-07-04T16:35:41.972Z,2.40
2018-07-04T16:38:21.556Z,2.80
2018-07-04T16:41:01.167Z,2.70
2018-07-04T16:43:40.733Z,3.10
2018-07-04T16:46:20.363Z,3.27
2018-07-04T16:48:59.970Z,3.13
2018-07-04T16:51:39.556Z,2.40
2018-07-04T16:54:19.179Z,2.90
2018-07-04T16:56:58.800Z,3.30
2018-07-04T16:59:38.171Z,3.27
2018-07-04T17:02:17.736Z,3.20
2018-07-04T17:04:57.491Z,3.17
2018-07-04T17:07:37.220Z,2.60
2018-07-04T17:10:16.743Z,3.20
2018-07-04T17:12:56.400Z,4.73
2018-07-04T17:15:35.952Z,4.53
2018-07-04T17:18:15.486Z,4.27
2018-07-04T17:20:55.113Z,4.60
2018-07-04T17:23:34.692Z,3.37
2018-07-04T17:26:14.906Z,3.93
2018-07-04T17:28:54.487Z,3.60
2018-07-04T17:31:34.267Z,3.30
2018-07-04T17:34:13.805Z,4.87
2018-07-04T17:36:53.409Z,4.30
2018-07-04T17:39:33.087Z,4.33
2018-07-04T17:42:12.728Z,5.33
2018-07-04T17:44:52.343Z,5.10
2018-07-04T17:47:31.884Z,4.60
2018-07-04T17:50:11.540Z,3.80
2018-07-04T17:52:51.203Z,4.50
2018-07-04T17:55:30.657Z,3.90
2018-07-04T17:58:10.204Z,3.73
2018-07-04T18:46:34.691Z,7.10
2018-07-04T18:49:14.339Z,4.10
2018-07-04T18:51:54.010Z,4.57
2018-07-04T18:54:33.641Z,4.77
2018-07-04T18:57:13.242Z,4.40
2018-07-04T18:59:52.919Z,4.60
2018-07-04T19:02:32.411Z,6.07
2018-07-04T19:05:12.022Z,6.00
2018-07-04T19:07:51.491Z,5.23
2018-07-04T19:10:31.194Z,5.53
2018-07-04T19:13:10.644Z,4.70
2018-07-04T19:15:50.404Z,4.73
2018-07-04T19:18:29.768Z,5.20
2018-07-04T19:21:09.343Z,5.10
2018-07-04T19:23:48.846Z,4.77
2018-07-04T19:26:28.495Z,5.20
2018-07-04T19:29:07.942Z,5.27
2018-07-04T19:31:47.650Z,5.23
2018-07-04T19:34:27.122Z,4.30
2018-07-04T19:37:07.347Z,5.37
2018-07-04T19:39:46.855Z,5.67
2018-07-04T19:42:26.688Z,5.63
2018-07-04T19:45:06.987Z,5.23
2018-07-04T19:47:46.430Z,5.60
2018-07-04T19:50:26.620Z,5.92
2018-07-04T19:53:06.122Z,5.60
2018-07-04T19:55:45.785Z,7.00
2018-07-04T19:58:25.449Z,5.43
2018-07-04T20:01:04.935Z,5.60
2018-07-04T20:03:44.434Z,5.63
2018-07-04T20:06:24.055Z,5.43
2018-07-04T20:09:03.976Z,5.05
2018-07-04T20:11:43.596Z,5.87
2018-07-04T20:14:23.131Z,5.30
2018-07-04T20:17:02.996Z,6.60
2018-07-04T20:19:42.496Z,6.05
2018-07-04T20:22:22.035Z,5.83
2018-07-04T20:25:01.876Z,5.50
2018-07-04T20:27:41.359Z,7.00
2018-07-04T20:30:20.835Z,6.12
2018-07-04T20:33:00.424Z,6.60
2018-07-04T20:35:40.281Z,5.40
2018-07-04T20:38:19.794Z,6.10
2018-07-04T20:40:59.808Z,6.40
2018-07-04T20:43:39.364Z,7.10
2018-07-04T20:46:19.352Z,7.33
2018-07-04T20:48:58.952Z,6.53
2018-07-04T20:51:38.606Z,6.67
2018-07-04T20:54:18.120Z,6.65
2018-07-04T20:56:57.588Z,7.20
2018-07-04T20:59:37.208Z,6.60
2018-07-04T21:02:16.771Z,6.07
2018-07-04T21:04:56.393Z,8.40
2018-07-04T21:07:36.162Z,6.47
2018-07-04T21:10:15.728Z,7.00
2018-07-04T21:12:55.716Z,6.80
2018-07-04T21:15:35.176Z,7.80
2018-07-04T21:18:14.812Z,6.70
2018-07-04T21:20:54.427Z,6.83
2018-07-04T21:23:33.959Z,7.53
2018-07-04T21:26:13.487Z,6.80
2018-07-04T21:28:53.234Z,7.72
2018-07-04T21:31:32.743Z,6.73
2018-07-04T21:34:12.430Z,7.63
2018-07-04T21:36:51.936Z,7.57
2018-07-04T21:39:31.359Z,7.75
2018-07-04T21:42:10.970Z,7.80
2018-07-04T21:44:50.582Z,7.30
2018-07-04T21:47:30.183Z,7.27
2018-07-04T21:50:09.876Z,8.13
2018-07-04T21:52:49.502Z,8.50
2018-07-04T21:55:29.026Z,7.13
2018-07-04T21:58:08.520Z,7.80
2018-07-04T22:00:48.039Z,7.42
2018-07-04T22:03:27.740Z,7.70
2018-07-04T22:06:07.188Z,7.63
2018-07-04T22:08:46.884Z,7.10
2018-07-04T22:11:26.452Z,7.90
2018-07-04T22:14:05.949Z,8.60
2018-07-04T22:16:45.879Z,8.07
2018-07-04T22:19:25.482Z,8.00
2018-07-04T22:22:05.091Z,8.80
2018-07-04T22:24:45.124Z,12.17
2018-07-04T22:27:24.667Z,9.23
2018-07-04T22:30:04.134Z,7.97
2018-07-04T22:32:43.779Z,8.97
2018-07-04T22:35:23.304Z,8.28
2018-07-04T22:38:02.847Z,8.53
2018-07-04T22:40:42.296Z,8.63
2018-07-04T22:43:21.688Z,8.10
2018-07-04T22:46:01.592Z,8.75
2018-07-04T22:48:40.989Z,8.40
2018-07-04T22:51:20.588Z,9.07
2018-07-04T22:54:00.099Z,7.53
2018-07-04T22:56:39.973Z,8.67
2018-07-04T22:59:19.673Z,8.50
2018-07-04T23:01:59.436Z,9.38
2018-07-04T23:04:38.918Z,9.25
2018-07-04T23:07:18.678Z,8.97
2018-07-04T23:09:58.088Z,7.80
2018-07-04T23:12:37.596Z,9.83
2018-07-04T23:15:17.049Z,7.70
2018-07-04T23:17:56.500Z,8.28
2018-07-04T23:20:36.001Z,9.07
2018-07-04T23:23:15.651Z,9.23
2018-07-04T23:25:55.343Z,8.23
2018-07-04T23:28:35.001Z,8.80
2018-07-04T23:31:14.651Z,8.47
2018-07-04T23:33:54.231Z,7.50
2018-07-04T23:36:33.959Z,8.73
2018-07-04T23:39:13.435Z,8.43
2018-07-04T23:41:53.255Z,8.07
2018-07-04T23:44:32.987Z,9.23
2018-07-04T23:47:12.698Z,8.23
2018-07-04T23:49:52.190Z,9.20
2018-07-04T23:52:31.846Z,10.03
2018-07-04T23:55:11.380Z,8.63
2018-07-04T23:57:50.889Z,9.97
